createdAt,value
2019-05-16T00:00:08.385Z,2.75
2019-05-16T00:03:00.841Z,2.30
2019-05-16T00:05:54.683Z,2.00
2019-05-16T00:08:58.568Z,2.60
2019-05-16T00:11:51.275Z,2.20
2019-05-16T00:14:44.077Z,2.17
2019-05-16T00:17:38.640Z,1.85
2019-05-16T00:20:28.397Z,2.08
2019-05-16T00:23:19.400Z,2.58
2019-05-16T00:26:12.213Z,2.08
2019-05-16T00:29:05.001Z,1.92
2019-05-16T00:31:58.074Z,1.92
2019-05-16T00:34:51.113Z,2.27
2019-05-16T00:37:44.168Z,2.22
2019-05-16T00:40:38.161Z,2.00
2019-05-16T00:43:30.536Z,1.95
2019-05-16T00:46:24.880Z,2.35
2019-05-16T00:49:18.696Z,2.45
2019-05-16T00:52:10.986Z,2.20
2019-05-16T00:55:04.810Z,1.85
2019-05-16T00:57:58.351Z,1.92
2019-05-16T01:01:08.526Z,1.85
2019-05-16T01:04:01.904Z,1.90
2019-05-16T01:06:54.952Z,2.42
2019-05-16T01:09:48.790Z,1.80
2019-05-16T01:12:40.809Z,1.35
2019-05-16T01:15:34.122Z,1.62
2019-05-16T01:18:28.777Z,2.47
2019-05-16T01:21:21.003Z,2.47
2019-05-16T01:24:13.806Z,2.30
2019-05-16T01:27:08.321Z,2.35
2019-05-16T01:30:00.173Z,2.12
2019-05-16T01:32:53.228Z,2.25
2019-05-16T01:35:47.748Z,2.33
2019-05-16T01:38:39.340Z,2.20
2019-05-16T01:41:32.392Z,1.37
2019-05-16T01:44:28.696Z,1.62
2019-05-16T01:47:19.789Z,2.47
2019-05-16T01:50:12.584Z,1.75
2019-05-16T01:53:08.626Z,2.25
2019-05-16T01:55:59.980Z,1.85
2019-05-16T01:58:53.031Z,2.52
2019-05-16T02:01:48.259Z,2.10
2019-05-16T02:04:41.190Z,2.58
2019-05-16T02:07:41.679Z,1.55
2019-05-16T02:10:34.727Z,2.40
2019-05-16T02:13:28.630Z,2.40
2019-05-16T02:16:18.758Z,1.80
2019-05-16T02:19:10.825Z,2.30
2019-05-16T02:22:04.139Z,1.80
2019-05-16T02:24:58.545Z,1.95
2019-05-16T02:27:51.784Z,2.67
2019-05-16T02:30:44.858Z,2.15
2019-05-16T02:33:40.340Z,2.55
2019-05-16T02:36:24.816Z,2.55
2019-05-16T02:39:20.954Z,2.62
2019-05-16T02:42:07.651Z,2.72
2019-05-16T02:45:02.336Z,2.25
2019-05-16T02:47:53.450Z,2.77
2019-05-16T02:50:46.761Z,2.60
2019-05-16T02:53:34.283Z,2.20
2019-05-16T02:56:27.241Z,2.25
2019-05-16T02:59:20.805Z,2.12
2019-05-16T03:02:13.096Z,2.90
2019-05-16T03:05:06.407Z,2.50
2019-05-16T03:08:01.252Z,2.70
2019-05-16T03:10:52.784Z,2.52
2019-05-16T03:13:46.352Z,2.30
2019-05-16T03:16:41.890Z,2.37
2019-05-16T03:19:32.459Z,2.08
2019-05-16T03:22:25.263Z,2.58
2019-05-16T03:25:22.151Z,2.62
2019-05-16T03:28:14.446Z,2.25
2019-05-16T03:31:07.495Z,2.02
2019-05-16T03:34:07.604Z,2.90
2019-05-16T03:36:55.235Z,2.58
2019-05-16T03:39:51.387Z,2.83
2019-05-16T03:42:41.625Z,1.72
2019-05-16T03:45:33.557Z,1.95
2019-05-16T03:48:26.605Z,1.87
2019-05-16T03:51:21.518Z,2.47
2019-05-16T03:54:12.818Z,2.60
2019-05-16T03:57:05.260Z,2.80
2019-05-16T04:00:00.410Z,1.62
2019-05-16T04:02:52.281Z,1.82
2019-05-16T04:05:43.663Z,3.08
2019-05-16T04:08:40.937Z,2.27
2019-05-16T04:11:33.615Z,2.70
2019-05-16T04:14:22.832Z,2.72
2019-05-16T04:17:16.392Z,2.47
2019-05-16T04:20:11.499Z,2.42
2019-05-16T04:23:03.019Z,2.90
2019-05-16T04:25:56.077Z,2.87
2019-05-16T04:28:51.431Z,3.27
2019-05-16T04:31:41.352Z,2.40
2019-05-16T04:34:32.937Z,2.20
2019-05-16T04:37:26.485Z,2.12
2019-05-16T04:40:15.499Z,2.90
2019-05-16T04:43:11.231Z,1.67
2019-05-16T04:46:01.885Z,3.10
2019-05-16T04:48:55.401Z,2.25
2019-05-16T04:51:51.364Z,1.87
2019-05-16T04:54:42.087Z,4.70
2019-05-16T04:57:34.570Z,1.98
2019-05-16T05:00:27.369Z,2.67
2019-05-16T05:03:21.137Z,3.20
2019-05-16T05:06:13.735Z,2.75
2019-05-16T05:09:06.793Z,2.60
2019-05-16T05:12:04.076Z,2.70
2019-05-16T05:14:52.911Z,2.40
2019-05-16T05:17:45.965Z,1.90
2019-05-16T05:20:41.576Z,2.72
2019-05-16T05:23:35.410Z,2.47
2019-05-16T05:26:30.592Z,2.00
2019-05-16T05:29:22.025Z,2.85
2019-05-16T05:32:14.330Z,1.98
2019-05-16T05:35:04.554Z,1.75
2019-05-16T05:37:53.726Z,2.80
2019-05-16T05:40:46.825Z,1.80
2019-05-16T05:43:40.135Z,2.08
2019-05-16T05:46:34.218Z,1.90
2019-05-16T05:49:30.011Z,1.55
2019-05-16T05:52:20.785Z,2.75
2019-05-16T05:55:20.810Z,2.08
2019-05-16T05:58:13.610Z,2.47
2019-05-16T06:01:06.921Z,2.05
2019-05-16T06:04:00.003Z,1.98
2019-05-16T06:06:52.776Z,2.67
2019-05-16T06:09:53.525Z,3.40
2019-05-16T06:12:40.845Z,1.75
2019-05-16T06:15:45.775Z,3.08
2019-05-16T06:18:39.686Z,2.42
2019-05-16T06:21:33.345Z,2.52
2019-05-16T06:24:24.936Z,2.20
2019-05-16T06:27:17.738Z,2.98
2019-05-16T06:30:11.409Z,1.80
2019-05-16T06:33:03.861Z,2.22
2019-05-16T06:35:56.654Z,1.80
2019-05-16T06:38:49.883Z,2.47
2019-05-16T06:41:41.484Z,3.02
2019-05-16T06:44:36.080Z,2.67
2019-05-16T06:47:30.527Z,2.22
2019-05-16T06:50:21.939Z,3.22
2019-05-16T06:53:15.244Z,3.30
2019-05-16T06:56:10.343Z,2.12
2019-05-16T06:59:01.382Z,2.62
2019-05-16T07:01:54.411Z,2.47
2019-05-16T07:04:47.211Z,2.45
2019-05-16T07:07:40.675Z,2.65
2019-05-16T07:10:33.319Z,1.75
2019-05-16T07:13:45.331Z,1.95
2019-05-16T07:16:40.440Z,2.58
2019-05-16T07:19:31.688Z,2.92
2019-05-16T07:22:21.418Z,2.17
2019-05-16T07:25:14.475Z,2.30
2019-05-16T07:28:10.223Z,1.90
2019-05-16T07:31:17.500Z,1.65
2019-05-16T07:34:02.349Z,2.00
2019-05-16T07:36:55.145Z,2.08
2019-05-16T07:39:50.885Z,2.12
2019-05-16T07:42:41.518Z,1.65
2019-05-16T07:45:37.435Z,1.95
2019-05-16T07:48:31.724Z,1.47
2019-05-16T07:51:22.731Z,1.50
2019-05-16T07:54:15.786Z,1.50
2019-05-16T07:57:18.712Z,1.55
2019-05-16T08:00:02.408Z,1.07
2019-05-16T08:02:51.668Z,1.07
2019-05-16T08:05:45.718Z,1.35
2019-05-16T08:08:40.380Z,1.57
2019-05-16T08:11:32.077Z,1.90
2019-05-16T08:14:21.553Z,1.47
2019-05-16T08:17:14.091Z,1.55
2019-05-16T08:20:07.148Z,1.10
2019-05-16T08:23:02.508Z,1.72
2019-05-16T08:25:55.308Z,1.15
2019-05-16T08:28:50.253Z,1.75
2019-05-16T08:31:42.954Z,1.50
2019-05-16T08:34:34.995Z,1.65
2019-05-16T08:37:38.628Z,1.62
2019-05-16T08:40:23.661Z,1.20
2019-05-16T08:43:16.460Z,1.50
2019-05-16T08:46:12.345Z,1.30
2019-05-16T08:49:02.316Z,1.47
2019-05-16T08:51:52.978Z,1.20
2019-05-16T08:54:43.769Z,1.27
2019-05-16T08:57:33.806Z,1.00
2019-05-16T09:00:23.275Z,1.32
2019-05-16T09:03:21.833Z,1.40
2019-05-16T09:06:11.802Z,1.17
2019-05-16T09:09:15.563Z,1.07
2019-05-16T09:11:53.109Z,1.50
2019-05-16T09:14:48.099Z,1.15
2019-05-16T09:17:37.450Z,1.92
2019-05-16T09:20:31.336Z,1.35
2019-05-16T09:23:26.677Z,1.37
2019-05-16T09:26:15.978Z,1.40
2019-05-16T09:29:08.313Z,1.92
2019-05-16T09:32:08.891Z,1.27
2019-05-16T09:34:52.520Z,1.37
2019-05-16T09:37:47.381Z,0.95
2019-05-16T09:40:34.540Z,1.12
2019-05-16T09:43:28.212Z,1.27
2019-05-16T09:46:20.394Z,1.55
2019-05-16T09:49:19.482Z,1.77
2019-05-16T09:52:03.180Z,1.60
2019-05-16T09:54:57.694Z,1.10
2019-05-16T09:57:49.287Z,1.00
2019-05-16T10:00:42.345Z,1.10
2019-05-16T10:03:37.269Z,1.00
2019-05-16T10:06:28.202Z,1.32
2019-05-16T10:09:22.026Z,1.02
2019-05-16T10:12:15.270Z,1.52
2019-05-16T10:15:07.271Z,0.95
2019-05-16T10:17:57.648Z,0.88
2019-05-16T10:23:57.033Z,1.35
2019-05-16T10:26:53.815Z,1.42
2019-05-16T10:29:50.572Z,0.85
2019-05-16T10:32:43.368Z,1.50
2019-05-16T10:35:37.241Z,1.30
2019-05-16T10:38:32.297Z,1.35
2019-05-16T10:41:25.100Z,1.02
2019-05-16T10:44:18.408Z,1.25
2019-05-16T10:47:11.979Z,1.00
2019-05-16T10:50:04.781Z,1.12
2019-05-16T10:53:22.301Z,1.10
2019-05-16T10:55:47.834Z,1.37
2019-05-16T10:58:59.605Z,1.40
2019-05-16T11:01:33.935Z,0.70
2019-05-16T11:04:37.591Z,1.10
2019-05-16T11:07:19.784Z,1.40
2019-05-16T11:10:12.841Z,1.30
2019-05-16T11:13:08.968Z,1.40
2019-05-16T11:16:02.283Z,1.47
2019-05-16T11:18:55.337Z,0.90
2019-05-16T11:21:48.146Z,1.10
2019-05-16T11:24:37.837Z,1.10
2019-05-16T11:27:30.411Z,1.30
2019-05-16T11:30:19.665Z,1.20
2019-05-16T11:33:12.427Z,1.10
2019-05-16T11:36:08.118Z,0.80
2019-05-16T11:39:01.734Z,0.82
2019-05-16T11:41:51.850Z,1.32
2019-05-16T11:44:47.878Z,1.30
2019-05-16T11:47:38.475Z,1.40
2019-05-16T11:50:31.527Z,1.25
2019-05-16T11:53:27.983Z,1.70
2019-05-16T11:56:18.669Z,1.27
2019-05-16T11:59:11.468Z,1.25
2019-05-16T12:02:04.777Z,1.00
2019-05-16T12:04:57.967Z,1.22
2019-05-16T12:07:51.148Z,1.15
2019-05-16T12:10:43.945Z,1.10
2019-05-16T12:13:37.513Z,0.98
2019-05-16T12:16:30.315Z,1.20
2019-05-16T12:19:23.394Z,1.22
2019-05-16T12:22:18.282Z,1.00
2019-05-16T12:25:09.228Z,1.30
2019-05-16T12:28:02.285Z,1.15
2019-05-16T12:30:56.297Z,0.80
2019-05-16T12:33:48.137Z,1.00
2019-05-16T12:36:40.678Z,0.90
2019-05-16T12:39:33.480Z,1.25
2019-05-16T12:42:27.133Z,1.02
2019-05-16T12:45:19.849Z,1.17
2019-05-16T12:48:12.649Z,1.30
2019-05-16T12:51:08.327Z,1.47
2019-05-16T12:53:59.275Z,1.05
2019-05-16T12:56:52.072Z,1.25
2019-05-16T12:59:49.968Z,1.15
2019-05-16T13:02:38.953Z,0.90
2019-05-16T13:05:32.006Z,1.20
2019-05-16T13:08:26.783Z,1.05
2019-05-16T13:11:20.566Z,1.10
2019-05-16T13:14:19.116Z,1.17
2019-05-16T13:17:12.177Z,1.55
2019-05-16T13:20:07.832Z,1.80
2019-05-16T13:22:58.809Z,1.10
2019-05-16T13:25:51.860Z,1.05
2019-05-16T13:28:47.332Z,0.90
2019-05-16T13:31:37.974Z,1.22
2019-05-16T13:34:30.763Z,1.40
2019-05-16T13:37:23.567Z,1.30
2019-05-16T13:40:11.381Z,1.57
2019-05-16T13:42:58.669Z,1.02
2019-05-16T13:45:51.978Z,0.90
2019-05-16T13:48:45.290Z,0.90
2019-05-16T13:51:38.355Z,0.65
2019-05-16T13:54:32.168Z,1.30
2019-05-16T13:57:28.099Z,1.35
2019-05-16T14:00:18.294Z,1.10
2019-05-16T14:03:12.360Z,1.47
2019-05-16T14:06:07.156Z,1.72
2019-05-16T14:08:58.745Z,1.30
2019-05-16T14:11:52.040Z,1.40
2019-05-16T14:14:42.486Z,1.80
2019-05-16T14:17:36.803Z,1.50
2019-05-16T14:20:27.882Z,1.10
2019-05-16T14:23:20.939Z,1.42
2019-05-16T14:26:13.747Z,1.10
2019-05-16T14:29:08.101Z,1.30
2019-05-16T14:32:00.365Z,1.10
2019-05-16T14:34:53.187Z,1.20
2019-05-16T14:37:46.844Z,1.10
2019-05-16T14:40:39.528Z,1.30
2019-05-16T14:43:32.327Z,1.30
2019-05-16T14:46:27.420Z,1.15
2019-05-16T14:50:27.710Z,1.07
2019-05-16T14:53:18.091Z,1.22
2019-05-16T14:56:10.605Z,1.07
2019-05-16T14:59:03.415Z,1.10
2019-05-16T15:01:58.150Z,1.10
2019-05-16T15:04:49.743Z,1.25
2019-05-16T15:07:42.850Z,1.35
2019-05-16T15:10:37.613Z,1.72
2019-05-16T15:13:28.683Z,0.95
2019-05-16T15:16:23.022Z,1.00
2019-05-16T15:19:18.631Z,1.10
2019-05-16T15:22:12.710Z,1.12
2019-05-16T15:25:08.102Z,0.78
2019-05-16T15:28:00.533Z,0.90
2019-05-16T15:30:53.414Z,0.85
2019-05-16T15:33:47.584Z,1.32
2019-05-16T15:37:08.111Z,1.10
2019-05-16T15:40:00.746Z,1.25
2019-05-16T15:42:49.934Z,1.00
2019-05-16T15:45:45.173Z,0.98
2019-05-16T15:48:57.027Z,0.90
2019-05-16T15:51:48.842Z,1.02
2019-05-16T15:54:42.407Z,0.80
2019-05-16T15:57:37.505Z,1.05
2019-05-16T16:00:28.266Z,1.25
2019-05-16T16:03:21.587Z,0.90
2019-05-16T16:06:17.766Z,1.07
2019-05-16T16:09:09.482Z,1.12
2019-05-16T16:12:02.279Z,0.90
2019-05-16T16:14:57.429Z,0.82
2019-05-16T16:17:46.938Z,1.10
2019-05-16T16:20:38.379Z,0.85
2019-05-16T16:23:27.768Z,0.72
2019-05-16T16:26:20.652Z,0.80
2019-05-16T16:29:13.450Z,0.80
2019-05-16T16:32:07.023Z,0.95
2019-05-16T16:35:00.083Z,0.98
2019-05-16T16:37:53.388Z,0.90
2019-05-16T16:40:48.037Z,0.90
2019-05-16T16:43:39.498Z,0.80
2019-05-16T16:46:32.809Z,1.00
2019-05-16T16:49:28.008Z,1.02
2019-05-16T16:52:19.692Z,0.90
2019-05-16T16:55:12.489Z,1.05
2019-05-16T16:58:09.222Z,0.82
2019-05-16T17:01:01.580Z,0.88
2019-05-16T17:04:00.365Z,1.05
2019-05-16T17:06:53.416Z,0.72
2019-05-16T17:09:47.127Z,1.30
2019-05-16T17:12:42.211Z,0.72
2019-05-16T17:15:28.489Z,1.02
2019-05-16T17:18:21.550Z,0.78
2019-05-16T17:21:22.549Z,1.60
2019-05-16T17:24:16.796Z,0.90
2019-05-16T17:27:08.136Z,0.93
2019-05-16T17:30:01.195Z,1.30
2019-05-16T17:32:56.549Z,1.00
2019-05-16T17:35:48.852Z,1.25
2019-05-16T17:38:39.856Z,1.00
2019-05-16T17:41:33.418Z,0.88
2019-05-16T17:44:27.158Z,1.20
2019-05-16T17:47:19.787Z,1.07
2019-05-16T17:50:12.842Z,0.82
2019-05-16T17:53:07.236Z,1.40
2019-05-16T17:55:57.299Z,1.25
2019-05-16T17:58:48.426Z,1.00
2019-05-16T18:04:47.595Z,1.00
2019-05-16T18:07:40.912Z,1.32
2019-05-16T18:10:36.317Z,1.30
2019-05-16T18:13:27.526Z,1.25
2019-05-16T18:16:20.334Z,0.95
2019-05-16T18:19:13.385Z,1.52
2019-05-16T18:22:06.665Z,1.57
2019-05-16T18:24:59.239Z,0.90
2019-05-16T18:27:52.042Z,1.10
2019-05-16T18:30:42.792Z,1.30
2019-05-16T18:33:37.131Z,1.00
2019-05-16T18:36:26.522Z,1.10
2019-05-16T18:39:19.400Z,1.30
2019-05-16T18:42:12.201Z,1.20
2019-05-16T18:45:07.281Z,1.20
2019-05-16T18:47:58.572Z,1.10
2019-05-16T18:50:52.648Z,1.30
2019-05-16T18:53:46.543Z,1.22
2019-05-16T18:56:39.272Z,1.30
2019-05-16T18:59:32.078Z,1.30
2019-05-16T19:02:27.133Z,1.40
2019-05-16T19:05:18.189Z,1.40
2019-05-16T19:08:11.243Z,1.27
2019-05-16T19:11:00.502Z,1.12
2019-05-16T19:13:53.256Z,1.40
2019-05-16T19:16:48.944Z,1.20
2019-05-16T19:19:39.153Z,1.32
2019-05-16T19:22:28.524Z,1.20
2019-05-16T19:25:21.395Z,1.30
2019-05-16T19:28:14.440Z,1.40
2019-05-16T19:31:07.498Z,1.35
2019-05-16T19:34:00.556Z,1.02
2019-05-16T19:36:53.608Z,1.35
2019-05-16T19:39:46.663Z,1.60
2019-05-16T19:42:39.722Z,1.27
2019-05-16T19:45:32.776Z,1.30
2019-05-16T19:48:20.233Z,1.30
2019-05-16T19:51:13.255Z,1.20
2019-05-16T19:54:07.186Z,1.00
2019-05-16T19:56:59.113Z,1.40
2019-05-16T19:59:52.168Z,1.27
2019-05-16T20:02:47.334Z,1.42
2019-05-16T20:05:38.794Z,1.20
2019-05-16T20:08:31.852Z,1.32
2019-05-16T20:11:27.489Z,1.50
2019-05-16T20:14:29.226Z,1.60
2019-05-16T20:17:30.472Z,1.40
2019-05-16T20:20:27.638Z,1.37
2019-05-16T20:23:18.649Z,1.55
2019-05-16T20:26:07.758Z,1.30
2019-05-16T20:28:59.697Z,1.52
2019-05-16T20:31:52.691Z,1.25
2019-05-16T20:34:48.555Z,1.60
2019-05-16T20:37:41.623Z,1.07
2019-05-16T20:40:37.486Z,1.50
2019-05-16T20:43:26.231Z,1.22
2019-05-16T20:46:18.216Z,1.95
2019-05-16T20:49:11.273Z,1.92
2019-05-16T20:52:06.899Z,1.77
2019-05-16T20:54:53.933Z,1.80
2019-05-16T20:57:48.541Z,1.55
2019-05-16T21:00:40.173Z,1.47
2019-05-16T21:03:33.487Z,1.35
2019-05-16T21:06:27.564Z,1.77
2019-05-16T21:09:20.621Z,1.70
2019-05-16T21:12:13.673Z,1.60
2019-05-16T21:15:09.547Z,1.92
2019-05-16T21:18:03.625Z,1.65
2019-05-16T21:20:57.710Z,1.98
2019-05-16T21:23:51.016Z,1.67
2019-05-16T21:26:46.075Z,1.30
2019-05-16T21:29:37.128Z,1.85
2019-05-16T21:32:29.927Z,1.70
2019-05-16T21:35:22.987Z,1.70
2019-05-16T21:38:16.499Z,2.05
2019-05-16T21:41:07.249Z,1.98
2019-05-16T21:43:59.078Z,2.17
2019-05-16T21:46:53.552Z,1.98
2019-05-16T21:49:47.093Z,1.90
2019-05-16T21:52:38.013Z,1.87
2019-05-16T21:55:31.049Z,1.92
2019-05-16T21:58:23.852Z,1.85
2019-05-16T22:01:19.462Z,1.65
2019-05-16T22:04:12.518Z,1.65
2019-05-16T22:07:13.006Z,2.08
2019-05-16T22:10:21.417Z,1.50
2019-05-16T22:13:41.094Z,1.62
2019-05-16T22:16:53.098Z,2.12
2019-05-16T22:19:52.040Z,1.72
2019-05-16T22:23:06.924Z,1.80
2019-05-16T22:26:04.007Z,2.00
2019-05-16T22:29:17.105Z,1.75
2019-05-16T22:32:16.448Z,1.57
2019-05-16T22:35:30.025Z,1.72
2019-05-16T22:38:30.000Z,1.70
2019-05-16T22:41:43.276Z,1.95
2019-05-16T22:44:49.127Z,2.22
2019-05-16T22:47:55.752Z,1.90
2019-05-16T22:51:01.611Z,2.37
2019-05-16T22:54:07.609Z,2.50
2019-05-16T22:57:12.554Z,2.20
2019-05-16T23:00:17.895Z,2.17
2019-05-16T23:03:23.497Z,1.60
2019-05-16T23:06:30.893Z,2.00
2019-05-16T23:09:36.747Z,2.00
2019-05-16T23:12:37.158Z,2.37
2019-05-16T23:15:42.312Z,2.55
2019-05-16T23:18:47.923Z,1.60
2019-05-16T23:21:53.767Z,2.10
2019-05-16T23:25:00.138Z,2.72
2019-05-16T23:28:07.603Z,2.55
2019-05-16T23:31:11.852Z,2.47
2019-05-16T23:34:18.785Z,2.37
2019-05-16T23:37:27.655Z,2.75
2019-05-16T23:40:33.772Z,2.08
2019-05-16T23:43:40.908Z,3.15
2019-05-16T23:46:47.108Z,1.90
2019-05-16T23:49:52.103Z,2.05
2019-05-16T23:52:57.958Z,1.92
2019-05-16T23:56:03.049Z,2.02
2019-05-16T23:59:08.653Z,1.95
